Monroe, MI

7:53 PM EST on February 19, 2017 (GMT -0500)
Custer

Weather History for KTTF - December, 2014

Change the Weather History Date:

Thursday, December 18, 2014

  Actual Average Record
Temperature  
Mean Temperature 30 °F -  
Max Temperature 32 °F 34 °F 52 °F (1967)
Min Temperature 28 °F 21 °F -4 °F (1945)
Degree Days  
Heating Degree Days 35    
Moisture  
Dew Point 26 °F    
Average Humidity 83    
Maximum Humidity 100    
Minimum Humidity 69    
Precipitation  
Precipitation 0.00 in - - ()
Sea Level Pressure  
Sea Level Pressure 30.18 in    
Wind  
Wind Speed 8 mph (West)    
Max Wind Speed 15 mph    
Max Gust Speed 18 mph    
Visibility 9 miles    
Events      
Averages and records for this station are not official NWS values.
T = Trace of Precipitation, MM = Missing Value Source: NWS Daily Summary

Daily Weather History Graph

Daily Weather History Graph

Search for Another Location

Airport or City:

Trip Planner

Search our weather history database for the weather conditions in past years. The results will help you decide how hot, cold, wet, or windy it might be!

Date:

Astronomy

Dec. 18, 2014 Rise Set
Actual Time 7:56 AM EST 5:04 PM EST
Civil Twilight 7:24 AM EST 5:35 PM EST
Nautical Twilight 6:49 AM EST 6:11 PM EST
Astronomical Twilight 6:15 AM EST 6:45 PM EST
Moon 4:06 AM EST (12/18) 2:46 PM EST (12/18)
Length of Visible Light 10h 11m
Length of Day
9h 07m
Waning Crescent, 13% of the Moon is Illuminated
Dec 18
Waning Crescent
Dec 21
New
Dec 28
First Quarter
Jan 4
Full
Jan 13
Last Quarter

Hourly Weather History & Observations

Time (EST) Temp. Windchill Dew Point Humidity Pressure Visibility Wind Dir Wind Speed Gust Speed Precip Events Conditions
12:16 AM 28.4 °F 18.0 °F 21.2 °F 74% 30.18 in 10.0 mi West 12.7 mph - N/A   Overcast
12:36 AM 28.4 °F 19.7 °F 21.2 °F 74% 30.18 in 10.0 mi West 9.2 mph - N/A   Overcast
12:56 AM 28.4 °F 19.1 °F 21.2 °F 74% 30.18 in 10.0 mi West 10.4 mph - N/A   Overcast
1:14 AM 28.4 °F 18.0 °F 21.2 °F 74% 30.19 in 10.0 mi West 12.7 mph 18.4 mph N/A   Overcast
1:34 AM 28.4 °F 17.0 °F 21.2 °F 74% 30.18 in 10.0 mi West 15.0 mph 18.4 mph N/A   Overcast
1:54 AM 28.4 °F 17.5 °F 21.2 °F 74% 30.18 in 10.0 mi West 13.8 mph 18.4 mph N/A   Overcast
2:14 AM 28.4 °F 19.7 °F 21.2 °F 74% 30.19 in 10.0 mi West 9.2 mph - N/A   Overcast
2:34 AM 28.4 °F 19.7 °F 21.2 °F 74% 30.20 in 10.0 mi West 9.2 mph - N/A   Overcast
2:54 AM 30.2 °F 21.3 °F 21.2 °F 69% 30.19 in 10.0 mi West 10.4 mph - N/A   Overcast
3:14 AM 30.2 °F 20.8 °F 21.2 °F 69% 30.19 in 10.0 mi West 11.5 mph - N/A   Overcast
3:34 AM 30.2 °F 24.3 °F 23.0 °F 75% 30.19 in 10.0 mi West 5.8 mph - N/A   Overcast
3:49 AM 30.2 °F 24.3 °F 23.0 °F 75% 30.19 in 10.0 mi West 5.8 mph - N/A   Overcast
4:11 AM 30.2 °F 22.6 °F 23.0 °F 75% 30.19 in 10.0 mi West 8.1 mph - N/A   Overcast
4:32 AM 30.2 °F 23.4 °F 23.0 °F 75% 30.19 in 10.0 mi West 6.9 mph - N/A   Overcast
4:52 AM 30.2 °F 24.3 °F 23.0 °F 75% 30.18 in 10.0 mi West 5.8 mph - N/A   Overcast
5:12 AM 30.2 °F 23.4 °F 23.0 °F 75% 30.19 in 10.0 mi West 6.9 mph - N/A   Overcast
5:32 AM 30.2 °F 22.6 °F 23.0 °F 75% 30.19 in 10.0 mi West 8.1 mph - N/A   Overcast
5:52 AM 30.2 °F 23.4 °F 23.0 °F 75% 30.19 in 10.0 mi West 6.9 mph - N/A   Overcast
6:12 AM 30.2 °F 23.4 °F 23.0 °F 75% 30.19 in 10.0 mi West 6.9 mph - N/A   Overcast
6:32 AM 30.2 °F 24.3 °F 23.0 °F 75% 30.19 in 10.0 mi West 5.8 mph - N/A   Overcast
6:52 AM 30.2 °F 24.3 °F 24.8 °F 80% 30.19 in 10.0 mi West 5.8 mph - N/A   Overcast
7:12 AM 30.2 °F 25.4 °F 24.8 °F 80% 30.19 in 10.0 mi West 4.6 mph - N/A   Overcast
7:32 AM 30.2 °F 25.4 °F 24.8 °F 80% 30.20 in 10.0 mi West 4.6 mph - N/A   Overcast
7:53 AM 30.2 °F 26.7 °F 24.8 °F 80% 30.19 in 10.0 mi West 3.5 mph - N/A   Overcast
8:13 AM 30.2 °F 26.7 °F 24.8 °F 80% 30.19 in 10.0 mi West 3.5 mph - N/A   Overcast
8:33 AM 30.2 °F - 24.8 °F 80% 30.19 in 10.0 mi Calm Calm - N/A   Overcast
8:53 AM 30.2 °F - 24.8 °F 80% 30.19 in 10.0 mi Calm Calm - N/A   Overcast
9:13 AM 30.2 °F 25.4 °F 24.8 °F 80% 30.20 in 10.0 mi WSW 4.6 mph - N/A   Overcast
9:33 AM 30.2 °F 22.6 °F 24.8 °F 80% 30.21 in 10.0 mi West 8.1 mph - N/A   Overcast
9:53 AM 30.2 °F 23.4 °F 24.8 °F 80% 30.21 in 10.0 mi WSW 6.9 mph - N/A   Overcast
10:13 AM 30.2 °F 23.4 °F 26.6 °F 86% 30.22 in 10.0 mi WSW 6.9 mph - N/A   Overcast
10:33 AM 30.2 °F 22.6 °F 26.6 °F 86% 30.22 in 10.0 mi WSW 8.1 mph - N/A   Overcast
10:54 AM 32.0 °F 24.2 °F 26.6 °F 80% 30.21 in 10.0 mi West 9.2 mph - N/A   Overcast
11:14 AM 32.0 °F 24.8 °F 26.6 °F 80% 30.21 in 10.0 mi West 8.1 mph - N/A   Overcast
11:34 AM 32.0 °F 24.8 °F 26.6 °F 80% 30.20 in 10.0 mi West 8.1 mph - N/A   Overcast
11:54 AM 32.0 °F 24.8 °F 26.6 °F 80% 30.19 in 10.0 mi West 8.1 mph - N/A   Overcast
12:14 PM 32.0 °F 24.8 °F 26.6 °F 80% 30.19 in 10.0 mi West 8.1 mph - N/A   Overcast
12:34 PM 32.0 °F 25.6 °F 26.6 °F 80% 30.18 in 10.0 mi West 6.9 mph - N/A   Overcast
12:54 PM 32.0 °F 24.8 °F 26.6 °F 80% 30.17 in 7.0 mi West 8.1 mph - N/A   Overcast
1:14 PM 32.0 °F 26.4 °F 26.6 °F 80% 30.16 in 10.0 mi West 5.8 mph - N/A   Overcast
1:34 PM 32.0 °F 24.8 °F 28.4 °F 87% 30.16 in 10.0 mi West 8.1 mph - N/A   Overcast
1:54 PM 32.0 °F 24.2 °F 26.6 °F 80% 30.16 in 10.0 mi West 9.2 mph - N/A   Overcast
2:15 PM 32.0 °F 24.2 °F 26.6 °F 80% 30.15 in 10.0 mi West 9.2 mph - N/A   Overcast
2:35 PM 32.0 °F 25.6 °F 26.6 °F 80% 30.15 in 10.0 mi West 6.9 mph - N/A   Overcast
2:55 PM 32.0 °F 25.6 °F 26.6 °F 80% 30.16 in 10.0 mi West 6.9 mph - N/A   Overcast
3:15 PM 32.0 °F 25.6 °F 28.4 °F 87% 30.16 in 10.0 mi West 6.9 mph - N/A   Overcast
3:35 PM 32.0 °F 25.6 °F 28.4 °F 87% 30.15 in 10.0 mi West 6.9 mph - N/A   Overcast
3:55 PM 32.0 °F 26.4 °F 28.4 °F 87% 30.16 in 10.0 mi West 5.8 mph - N/A   Overcast
4:15 PM 32.0 °F 26.4 °F 28.4 °F 87% 30.16 in 10.0 mi West 5.8 mph - N/A   Overcast
4:35 PM 32.0 °F 27.5 °F 28.4 °F 87% 30.16 in 7.0 mi West 4.6 mph - N/A   Overcast
4:55 PM 32.0 °F 28.7 °F 28.4 °F 87% 30.16 in 10.0 mi West 3.5 mph - N/A   Overcast
5:15 PM 32.0 °F 27.5 °F 28.4 °F 87% 30.16 in 10.0 mi West 4.6 mph - N/A   Overcast
5:36 PM 32.0 °F 28.7 °F 28.4 °F 87% 30.16 in 10.0 mi West 3.5 mph - N/A   Overcast
5:56 PM 32.0 °F 28.7 °F 28.4 °F 87% 30.16 in 10.0 mi West 3.5 mph - N/A   Overcast
6:16 PM 30.2 °F 25.4 °F 28.4 °F 93% 30.16 in 10.0 mi WSW 4.6 mph - N/A   Overcast
6:36 PM 30.2 °F 26.7 °F 28.4 °F 93% 30.16 in 7.0 mi WSW 3.5 mph - N/A   Overcast
6:56 PM 30.2 °F 25.4 °F 28.4 °F 93% 30.17 in 7.0 mi WSW 4.6 mph - N/A   Overcast
7:16 PM 30.2 °F 24.3 °F 28.4 °F 93% 30.17 in 7.0 mi WSW 5.8 mph - N/A   Overcast
7:36 PM 30.2 °F 24.3 °F 28.4 °F 93% 30.17 in 7.0 mi West 5.8 mph - N/A   Overcast
7:56 PM 30.2 °F 24.3 °F 30.2 °F 100% 30.17 in 5.0 mi WSW 5.8 mph - N/A   Overcast
8:16 PM 30.2 °F 23.4 °F 28.4 °F 93% 30.17 in 5.0 mi West 6.9 mph - N/A   Overcast
8:36 PM 30.2 °F 23.4 °F 28.4 °F 93% 30.17 in 7.0 mi West 6.9 mph - N/A   Overcast
8:51 PM 30.2 °F 23.4 °F 28.4 °F 93% 30.17 in 5.0 mi West 6.9 mph - N/A   Overcast
9:12 PM 30.2 °F 22.6 °F 28.4 °F 93% 30.17 in 4.0 mi West 8.1 mph - N/A   Overcast
9:32 PM 30.2 °F 22.6 °F 28.4 °F 93% 30.17 in 4.0 mi West 8.1 mph - N/A   Overcast
9:52 PM 30.2 °F 23.4 °F 28.4 °F 93% 30.17 in 3.0 mi West 6.9 mph - N/A   Overcast
10:12 PM 30.2 °F 23.4 °F 28.4 °F 93% 30.18 in 4.0 mi West 6.9 mph - N/A   Overcast
10:32 PM 30.2 °F 23.4 °F 28.4 °F 93% 30.18 in 4.0 mi West 6.9 mph - N/A   Overcast
10:52 PM 30.2 °F 24.3 °F 28.4 °F 93% 30.18 in 4.0 mi West 5.8 mph - N/A   Overcast
11:12 PM 30.2 °F 24.3 °F 28.4 °F 93% 30.18 in 4.0 mi West 5.8 mph - N/A   Overcast
11:32 PM 30.2 °F 22.6 °F 28.4 °F 93% 30.18 in 7.0 mi WNW 8.1 mph - N/A   Overcast
11:52 PM 30.2 °F 24.3 °F 28.4 °F 93% 30.18 in 7.0 mi WNW 5.8 mph - N/A   Overcast